Time;durP1;ratioP1;P1;durP2;ratioP2;P2;SDS_P1;SDS_P2;PMS_P1;PMS_P2;Temp;Humidity;BMP_temperature;BMP_pressure;BME280_temperature;BME280_humidity;BME280_pressure;Samples;Min_cycle;Max_cycle;Signal;HPM_P1;HPM_P2
2022/07/25 00:00:58;;;;;;;10.38;9.38;;;23.10;99.90;;;;;;4893574;29;20040;-75
2022/07/25 00:03:24;;;;;;;13.15;9.80;;;23.10;99.90;;;;;;4907037;29;20768;-74
2022/07/25 00:05:49;;;;;;;11.85;9.40;;;23.10;99.90;;;;;;4911663;29;20521;-74
2022/07/25 00:08:15;;;;;;;11.85;10.18;;;23.00;99.90;;;;;;4913516;29;20825;-74
2022/07/25 00:10:41;;;;;;;12.70;10.88;;;23.00;99.90;;;;;;4909673;29;20167;-74
2022/07/25 00:13:06;;;;;;;11.38;10.23;;;23.00;99.90;;;;;;4912490;29;20052;-75
2022/07/25 00:15:32;;;;;;;13.60;10.57;;;23.00;99.90;;;;;;4911838;29;20036;-75
2022/07/25 00:17:57;;;;;;;12.32;11.13;;;22.90;99.90;;;;;;4907565;29;20171;-75
2022/07/25 00:20:23;;;;;;;11.80;10.70;;;23.00;99.90;;;;;;4892950;29;20052;-75
2022/07/25 00:22:49;;;;;;;13.20;10.70;;;23.00;99.90;;;;;;4904594;29;20108;-74
2022/07/25 00:25:14;;;;;;;14.70;10.88;;;23.00;99.90;;;;;;4902847;29;20587;-74
2022/07/25 00:27:40;;;;;;;11.60;10.50;;;22.90;99.90;;;;;;4892512;29;20048;-74
2022/07/25 00:30:06;;;;;;;11.80;10.68;;;22.90;99.90;;;;;;4895159;29;20056;-74
2022/07/25 00:32:32;;;;;;;11.87;10.67;;;22.90;99.90;;;;;;4892978;29;20127;-74
2022/07/25 00:34:57;;;;;;;12.70;11.30;;;23.00;99.90;;;;;;4887123;29;20176;-75
2022/07/25 00:37:23;;;;;;;12.02;10.93;;;23.00;99.90;;;;;;4889802;29;20112;-75
2022/07/25 00:39:49;;;;;;;12.13;10.95;;;23.00;99.90;;;;;;4907675;29;20041;-75
2022/07/25 00:42:14;;;;;;;11.90;10.70;;;23.00;99.90;;;;;;4888892;29;20130;-74
2022/07/25 00:44:40;;;;;;;11.65;10.35;;;23.00;99.90;;;;;;4909405;29;20517;-75
2022/07/25 00:47:05;;;;;;;13.27;11.63;;;23.00;99.90;;;;;;4905384;29;20049;-74
2022/07/25 00:49:31;;;;;;;12.20;11.10;;;23.00;99.90;;;;;;4905435;29;20041;-74
2022/07/25 00:51:57;;;;;;;13.93;12.07;;;22.80;99.90;;;;;;4892305;29;20180;-74
2022/07/25 00:54:23;;;;;;;12.07;10.98;;;22.80;99.90;;;;;;4892459;29;22176;-74
2022/07/25 00:56:51;;;;;;;12.93;11.63;;;22.70;99.90;;;;;;4884587;29;20075;-74
2022/07/25 00:59:17;;;;;;;12.80;11.63;;;22.70;99.90;;;;;;4891816;29;20051;-74
2022/07/25 01:01:46;;;;;;;14.48;11.20;;;22.60;99.90;;;;;;4888360;29;20040;-74
2022/07/25 01:04:12;;;;;;;12.43;11.13;;;22.60;99.90;;;;;;4898747;29;20112;-74
2022/07/25 01:06:38;;;;;;;13.10;11.57;;;22.50;99.90;;;;;;4893403;29;20037;-74
2022/07/25 01:09:03;;;;;;;12.70;11.38;;;22.40;99.90;;;;;;4905689;29;20055;-74
2022/07/25 01:11:30;;;;;;;13.00;11.70;;;22.40;99.90;;;;;;4907847;29;20069;-74
2022/07/25 01:13:55;;;;;;;14.10;11.25;;;22.40;99.90;;;;;;4887705;29;20092;-74
2022/07/25 01:16:21;;;;;;;12.75;11.40;;;22.40;99.90;;;;;;4886049;29;20052;-74
2022/07/25 01:18:46;;;;;;;13.35;11.90;;;22.30;99.90;;;;;;4891390;29;20120;-74
2022/07/25 01:21:13;;;;;;;13.30;11.98;;;22.30;99.90;;;;;;4893407;29;20132;-74
2022/07/25 01:23:39;;;;;;;13.23;11.93;;;22.30;99.90;;;;;;4893352;29;20067;-75
2022/07/25 01:26:05;;;;;;;12.63;11.43;;;22.30;99.90;;;;;;4889556;29;20330;-74
2022/07/25 01:28:30;;;;;;;13.15;11.85;;;22.30;99.90;;;;;;4892557;29;20432;-74
2022/07/25 01:30:56;;;;;;;13.73;12.40;;;22.30;99.90;;;;;;4871061;29;20052;-74
2022/07/25 01:33:22;;;;;;;13.65;12.07;;;22.20;99.90;;;;;;4891828;29;20124;-74
2022/07/25 01:35:49;;;;;;;14.35;12.45;;;22.20;99.90;;;;;;4891688;29;20152;-75
2022/07/25 01:38:15;;;;;;;13.70;12.32;;;22.20;99.90;;;;;;4889582;29;20052;-75
2022/07/25 01:40:41;;;;;;;13.73;12.43;;;22.20;99.90;;;;;;4893689;29;20044;-74
2022/07/25 01:43:07;;;;;;;13.88;11.85;;;22.10;99.90;;;;;;4891668;29;20048;-74
2022/07/25 01:45:33;;;;;;;14.38;12.98;;;22.10;99.90;;;;;;4889699;29;20133;-74
2022/07/25 01:47:58;;;;;;;14.63;13.13;;;22.10;99.90;;;;;;4893507;29;20467;-74
2022/07/25 01:50:24;;;;;;;15.88;13.48;;;22.10;99.90;;;;;;4887587;29;20052;-74
2022/07/25 01:52:50;;;;;;;13.98;12.60;;;22.10;99.90;;;;;;4890383;29;20051;-74
2022/07/25 01:55:16;;;;;;;14.68;13.18;;;22.10;99.90;;;;;;4890731;29;20079;-74
2022/07/25 01:57:41;;;;;;;14.95;13.35;;;22.10;99.90;;;;;;4865448;29;20060;-73
2022/07/25 02:00:10;;;;;;;14.57;12.88;;;22.20;99.90;;;;;;4870283;29;20056;-74
2022/07/25 02:02:36;;;;;;;14.82;13.43;;;22.20;99.90;;;;;;4885751;29;20043;-74
2022/07/25 02:05:02;;;;;;;14.50;13.00;;;22.20;99.90;;;;;;4885734;29;20205;-74
2022/07/25 02:07:28;;;;;;;14.38;12.88;;;22.30;99.90;;;;;;4892806;29;20040;-74
2022/07/25 02:09:53;;;;;;;14.90;13.10;;;22.20;99.90;;;;;;4888692;29;20222;-74
2022/07/25 02:12:19;;;;;;;13.57;12.27;;;22.30;99.90;;;;;;4892278;29;20047;-74
2022/07/25 02:14:44;;;;;;;13.45;12.15;;;22.20;99.90;;;;;;4890836;29;20044;-74
2022/07/25 02:17:10;;;;;;;15.10;13.30;;;22.30;99.90;;;;;;4889658;29;20143;-74
2022/07/25 02:19:36;;;;;;;15.52;13.18;;;22.30;99.90;;;;;;4893474;29;20104;-74
2022/07/25 02:22:02;;;;;;;13.40;12.13;;;22.30;99.90;;;;;;4892393;29;20056;-74
2022/07/25 02:24:28;;;;;;;14.55;12.75;;;22.30;99.90;;;;;;4889123;29;20377;-74
2022/07/25 02:26:53;;;;;;;13.90;12.40;;;22.30;99.90;;;;;;4889371;29;20060;-74
2022/07/25 02:29:19;;;;;;;14.50;13.10;;;22.30;99.90;;;;;;4891105;29;20060;-74
2022/07/25 02:31:45;;;;;;;14.07;12.77;;;22.30;99.90;;;;;;4864307;29;20185;-74
2022/07/25 02:34:11;;;;;;;14.73;12.82;;;22.30;99.90;;;;;;4868784;29;20064;-74
2022/07/25 02:36:36;;;;;;;14.40;12.95;;;22.30;99.90;;;;;;4889631;29;20036;-74
2022/07/25 02:39:02;;;;;;;13.68;12.38;;;22.20;99.90;;;;;;4885093;29;20476;-75
2022/07/25 02:41:28;;;;;;;15.18;12.82;;;22.30;99.90;;;;;;4891283;29;20396;-75
2022/07/25 02:43:54;;;;;;;14.65;13.13;;;22.20;99.90;;;;;;4886172;29;20073;-75
2022/07/25 02:46:19;;;;;;;13.95;12.43;;;22.20;99.90;;;;;;4887714;29;20052;-75
2022/07/25 02:48:45;;;;;;;14.35;12.65;;;22.20;99.90;;;;;;4893019;29;20444;-75
2022/07/25 02:51:11;;;;;;;14.82;13.10;;;22.20;99.90;;;;;;4880967;29;20522;-75
2022/07/25 02:53:36;;;;;;;14.57;13.13;;;22.10;99.90;;;;;;4876073;29;22351;-75
2022/07/25 02:56:02;;;;;;;15.45;14.05;;;22.10;99.90;;;;;;4895805;29;20051;-75
2022/07/25 02:58:28;;;;;;;15.02;13.27;;;22.10;99.90;;;;;;4889908;29;20056;-75
2022/07/25 03:00:53;;;;;;;15.13;13.55;;;22.10;99.90;;;;;;4892588;29;20051;-75
2022/07/25 03:03:19;;;;;;;15.73;14.05;;;22.10;99.90;;;;;;4887467;29;20412;-75
2022/07/25 03:05:45;;;;;;;15.40;13.90;;;22.10;99.90;;;;;;4888810;29;20159;-74
2022/07/25 03:08:10;;;;;;;16.20;14.10;;;22.10;99.90;;;;;;4892065;29;20896;-75
2022/07/25 03:10:36;;;;;;;16.45;14.82;;;22.10;99.90;;;;;;4893395;29;20044;-75
2022/07/25 03:13:02;;;;;;;15.70;14.18;;;22.00;99.90;;;;;;4893442;29;20056;-75
2022/07/25 03:15:27;;;;;;;15.73;14.13;;;22.00;99.90;;;;;;4873369;29;20057;-75
2022/07/25 03:17:53;;;;;;;15.35;13.95;;;22.00;99.90;;;;;;4893210;29;20048;-75
2022/07/25 03:20:18;;;;;;;16.95;14.10;;;21.90;99.90;;;;;;4871449;29;20070;-75
2022/07/25 03:22:44;;;;;;;16.08;14.48;;;21.90;99.90;;;;;;4877063;29;20109;-75
2022/07/25 03:25:10;;;;;;;15.88;14.27;;;21.90;99.90;;;;;;4895477;29;20037;-75
2022/07/25 03:27:35;;;;;;;16.17;14.63;;;21.80;99.90;;;;;;4894520;29;20184;-75
2022/07/25 03:30:01;;;;;;;16.60;14.90;;;21.80;99.90;;;;;;4913126;29;20080;-74
2022/07/25 03:32:27;;;;;;;15.32;13.80;;;21.80;99.90;;;;;;4892371;29;20064;-74
2022/07/25 03:34:52;;;;;;;15.68;14.07;;;21.70;99.90;;;;;;4896792;29;20051;-74
2022/07/25 03:37:18;;;;;;;17.25;14.55;;;21.70;99.90;;;;;;4890530;29;20059;-74
2022/07/25 03:39:44;;;;;;;15.25;13.77;;;21.70;99.90;;;;;;4887002;29;20497;-75
2022/07/25 03:42:10;;;;;;;15.55;13.95;;;21.70;99.90;;;;;;4890598;29;21398;-75
2022/07/25 03:44:36;;;;;;;15.40;14.00;;;21.70;99.90;;;;;;4893802;29;20124;-75
2022/07/25 03:47:03;;;;;;;15.70;14.10;;;21.70;99.90;;;;;;4909671;29;20058;-75
2022/07/25 03:49:29;;;;;;;16.35;14.65;;;21.70;99.90;;;;;;4911433;29;20096;-75
2022/07/25 03:51:54;;;;;;;14.82;13.27;;;21.60;99.90;;;;;;4894891;29;20039;-75
2022/07/25 03:54:20;;;;;;;15.57;14.15;;;21.60;99.90;;;;;;4893179;29;20067;-75
2022/07/25 03:56:48;;;;;;;15.07;13.57;;;21.60;99.90;;;;;;4909734;29;20075;-75
2022/07/25 03:59:16;;;;;;;15.43;13.93;;;21.60;99.90;;;;;;4887030;29;20039;-75
2022/07/25 04:01:43;;;;;;;16.27;14.68;;;21.60;99.90;;;;;;4893808;29;20079;-75
2022/07/25 04:04:09;;;;;;;15.38;13.90;;;21.60;99.90;;;;;;4890342;29;20056;-74
2022/07/25 04:06:36;;;;;;;15.48;13.98;;;21.60;99.90;;;;;;4893986;29;20044;-75
2022/07/25 04:09:02;;;;;;;15.32;13.73;;;21.50;99.90;;;;;;4890394;29;20055;-75
2022/07/25 04:11:29;;;;;;;15.15;13.65;;;21.50;99.90;;;;;;4892581;29;20096;-75
2022/07/25 04:13:55;;;;;;;;;;;21.50;99.90;;;;;;4893445;29;20127;-75
2022/07/25 04:16:21;;;;;;;16.03;14.37;;;21.40;99.90;;;;;;4892898;29;20074;-75
2022/07/25 04:18:47;;;;;;;15.75;14.15;;;21.40;99.90;;;;;;4899871;29;20188;-75
2022/07/25 04:21:13;;;;;;;16.55;14.85;;;21.50;99.90;;;;;;4893817;29;20053;-75
2022/07/25 04:23:38;;;;;;;17.73;14.02;;;21.50;99.90;;;;;;4893349;29;20049;-75
2022/07/25 04:26:04;;;;;;;15.80;14.30;;;21.50;99.90;;;;;;4893309;29;20061;-75
2022/07/25 04:28:31;;;;;;;17.00;15.23;;;21.50;99.90;;;;;;4891233;29;20392;-75
2022/07/25 04:30:57;;;;;;;16.67;15.07;;;21.50;99.90;;;;;;4887573;29;20484;-75
2022/07/25 04:33:23;;;;;;;16.20;14.55;;;21.50;99.90;;;;;;4891847;29;20051;-75
2022/07/25 04:35:48;;;;;;;15.43;13.82;;;21.50;99.90;;;;;;4894617;29;20040;-75
2022/07/25 04:38:14;;;;;;;15.57;14.18;;;21.50;99.90;;;;;;4888852;29;20112;-75
2022/07/25 04:40:40;;;;;;;16.80;15.05;;;21.50;99.90;;;;;;4893927;29;20055;-75
2022/07/25 04:43:05;;;;;;;16.15;14.55;;;21.50;99.90;;;;;;4889650;29;20046;-75
2022/07/25 04:45:32;;;;;;;16.20;14.57;;;21.50;99.90;;;;;;4888053;29;20448;-75
2022/07/25 04:47:57;;;;;;;20.27;14.02;;;21.50;99.90;;;;;;4891430;29;20108;-75
2022/07/25 04:50:23;;;;;;;15.68;14.13;;;21.50;99.90;;;;;;4887957;29;20493;-75
2022/07/25 04:52:49;;;;;;;17.52;14.30;;;21.60;99.90;;;;;;4875349;29;20431;-75
2022/07/25 04:55:15;;;;;;;16.33;14.73;;;21.70;99.90;;;;;;4876640;29;20066;-75
2022/07/25 04:57:40;;;;;;;15.68;13.95;;;21.70;99.90;;;;;;4892689;29;20107;-74
2022/07/25 05:00:08;;;;;;;16.45;14.90;;;21.80;99.90;;;;;;4892071;29;20044;-74
2022/07/25 05:02:34;;;;;;;16.65;14.18;;;21.90;99.90;;;;;;4873495;29;20135;-75
2022/07/25 05:05:00;;;;;;;16.47;14.87;;;22.00;99.90;;;;;;4889489;29;20048;-75
2022/07/25 05:07:26;;;;;;;16.63;14.63;;;22.00;99.90;;;;;;4895758;29;20056;-75
2022/07/25 05:09:51;;;;;;;16.58;14.77;;;22.10;99.90;;;;;;4874587;29;20044;-75
2022/07/25 05:12:17;;;;;;;16.58;14.40;;;22.10;99.90;;;;;;4889444;29;20062;-75
2022/07/25 05:14:43;;;;;;;16.95;13.75;;;22.10;99.90;;;;;;4887252;29;20043;-75
2022/07/25 05:17:09;;;;;;;15.82;14.18;;;22.10;99.90;;;;;;4885594;29;20052;-75
2022/07/25 05:19:35;;;;;;;15.18;13.55;;;22.20;99.90;;;;;;4889751;29;20099;-74
2022/07/25 05:22:01;;;;;;;17.45;13.88;;;22.20;99.90;;;;;;4892755;29;21027;-75
2022/07/25 05:24:27;;;;;;;15.47;13.97;;;22.20;99.90;;;;;;4906043;29;20056;-74
2022/07/25 05:26:52;;;;;;;16.48;14.23;;;22.30;99.90;;;;;;4911279;29;20667;-75
2022/07/25 05:29:18;;;;;;;15.40;13.85;;;22.30;99.90;;;;;;4909696;29;20572;-75
2022/07/25 05:31:44;;;;;;;23.13;18.30;;;22.40;99.90;;;;;;4892356;29;20044;-75
2022/07/25 05:34:10;;;;;;;23.35;18.83;;;22.40;99.90;;;;;;4907216;29;20338;-75
2022/07/25 05:36:35;;;;;;;20.27;17.88;;;22.40;99.90;;;;;;4893816;29;20087;-75
2022/07/25 05:39:02;;;;;;;18.45;16.55;;;22.50;99.90;;;;;;4911865;29;20052;-75
2022/07/25 05:41:27;;;;;;;20.95;15.27;;;22.50;99.90;;;;;;4909091;29;20044;-75
2022/07/25 05:43:53;;;;;;;17.90;14.68;;;22.60;99.90;;;;;;4908532;29;20155;-75
2022/07/25 05:46:19;;;;;;;18.58;16.02;;;22.60;99.90;;;;;;4910861;29;20058;-75
2022/07/25 05:48:44;;;;;;;16.58;14.82;;;22.70;99.90;;;;;;4909150;29;20395;-75
2022/07/25 05:51:10;;;;;;;16.42;14.63;;;22.80;99.90;;;;;;4893551;29;20055;-75
2022/07/25 05:53:36;;;;;;;15.13;13.63;;;22.90;99.90;;;;;;4911264;29;20037;-75
2022/07/25 05:56:02;;;;;;;15.75;12.85;;;23.00;99.90;;;;;;4893716;29;20048;-75
2022/07/25 05:58:27;;;;;;;16.02;12.85;;;23.10;99.90;;;;;;4894599;29;20111;-75
2022/07/25 06:00:53;;;;;;;14.52;12.80;;;23.10;99.90;;;;;;4904354;29;20044;-74
2022/07/25 06:03:19;;;;;;;14.43;12.32;;;23.20;99.90;;;;;;4883514;29;20131;-74
2022/07/25 06:05:46;;;;;;;13.50;12.10;;;23.30;99.90;;;;;;4892866;29;20098;-74
2022/07/25 06:08:15;;;;;;;13.52;12.18;;;23.40;99.90;;;;;;4901448;29;20132;-74
2022/07/25 06:10:41;;;;;;;13.38;11.98;;;23.40;99.90;;;;;;4911128;29;20090;-74
2022/07/25 06:13:08;;;;;;;15.00;12.77;;;23.40;99.90;;;;;;4907932;29;20048;-74
2022/07/25 06:15:34;;;;;;;14.70;12.20;;;23.50;99.90;;;;;;4903318;29;20046;-74
2022/07/25 06:17:59;;;;;;;17.58;12.73;;;23.60;99.90;;;;;;4905280;29;20040;-75
2022/07/25 06:20:25;;;;;;;14.25;11.98;;;23.60;99.90;;;;;;4895715;29;20099;-74
2022/07/25 06:22:51;;;;;;;14.63;12.32;;;23.70;99.90;;;;;;4896257;29;20563;-77
2022/07/25 06:25:17;;;;;;;15.18;12.82;;;23.70;99.90;;;;;;4881848;29;20048;-73
2022/07/25 06:27:43;;;;;;;15.30;12.07;;;23.80;99.90;;;;;;4886507;29;20511;-73
2022/07/25 06:30:11;;;;;;;14.25;12.75;;;23.80;99.90;;;;;;4891390;29;20048;-73
2022/07/25 06:32:37;;;;;;;14.75;12.80;;;23.80;99.90;;;;;;4891580;29;20056;-73
2022/07/25 06:35:03;;;;;;;14.02;12.40;;;23.90;99.90;;;;;;4889873;29;20235;-73
2022/07/25 06:37:29;;;;;;;16.50;11.45;;;24.00;99.90;;;;;;4887674;29;20049;-73
2022/07/25 06:39:54;;;;;;;12.75;11.30;;;24.00;99.90;;;;;;4886198;29;20048;-73
2022/07/25 06:42:20;;;;;;;13.65;11.52;;;24.10;99.90;;;;;;4868443;29;20643;-73
2022/07/25 06:44:46;;;;;;;12.93;11.00;;;24.20;99.90;;;;;;4891146;29;20057;-73
2022/07/25 06:47:12;;;;;;;11.88;10.48;;;24.20;99.90;;;;;;4890529;29;20059;-73
2022/07/25 06:49:39;;;;;;;12.63;10.88;;;24.30;99.90;;;;;;4889535;29;20036;-73
2022/07/25 06:52:05;;;;;;;;;;;24.40;99.90;;;;;;4884737;29;20100;-73
2022/07/25 06:54:31;;;;;;;12.57;10.70;;;24.40;99.90;;;;;;4885013;29;19931;-73
2022/07/25 06:56:57;;;;;;;13.33;11.87;;;24.50;99.90;;;;;;4886356;29;20473;-73
2022/07/25 06:59:23;;;;;;;13.55;12.00;;;24.50;99.90;;;;;;4874436;29;20312;-73
2022/07/25 07:01:48;;;;;;;12.30;11.02;;;24.60;99.90;;;;;;4886412;29;20048;-73
2022/07/25 07:04:14;;;;;;;11.57;10.38;;;24.70;99.90;;;;;;4891956;29;20049;-73
2022/07/25 07:06:40;;;;;;;11.52;9.85;;;24.70;99.90;;;;;;4886787;29;20079;-73
2022/07/25 07:09:06;;;;;;;13.27;10.98;;;24.70;99.90;;;;;;4890438;29;20099;-72
2022/07/25 07:11:33;;;;;;;11.35;10.13;;;24.80;99.90;;;;;;4887422;29;20099;-74
2022/07/25 07:14:01;;;;;;;11.32;9.88;;;24.90;99.90;;;;;;4883928;29;20507;-75
2022/07/25 07:16:28;;;;;;;11.07;9.20;;;24.90;99.90;;;;;;4890337;29;20067;-73
2022/07/25 07:18:55;;;;;;;10.98;8.93;;;25.10;99.90;;;;;;4869392;29;20056;-74
2022/07/25 07:21:20;;;;;;;10.25;8.43;;;25.20;99.90;;;;;;4880421;29;20725;-78
2022/07/25 07:23:46;;;;;;;10.35;7.40;;;25.30;99.90;;;;;;4890063;29;20052;-76
2022/07/25 07:26:12;;;;;;;11.55;7.95;;;25.40;99.90;;;;;;4876077;29;20067;-75
2022/07/25 07:28:38;;;;;;;12.95;8.50;;;25.50;99.90;;;;;;4876239;29;20080;-75
2022/07/25 07:31:03;;;;;;;10.70;8.50;;;25.50;99.90;;;;;;4892250;29;20552;-75
2022/07/25 07:33:29;;;;;;;12.90;8.98;;;25.60;99.90;;;;;;4893546;29;20040;-76
2022/07/25 07:35:55;;;;;;;11.65;9.23;;;25.70;99.90;;;;;;4892561;29;20040;-74
2022/07/25 07:38:22;;;;;;;12.02;8.88;;;25.70;99.90;;;;;;4896490;29;20055;-74
2022/07/25 07:40:48;;;;;;;;;;;25.80;99.90;;;;;;4891914;29;20437;-74
2022/07/25 07:43:14;;;;;;;11.07;9.33;;;25.80;99.90;;;;;;4897171;29;19970;-75
2022/07/25 07:45:41;;;;;;;12.18;8.68;;;25.90;99.90;;;;;;4888773;29;20049;-77
2022/07/25 07:48:06;;;;;;;;;;;26.00;99.90;;;;;;4892676;29;20124;-75
2022/07/25 07:50:33;;;;;;;13.47;9.30;;;26.10;99.90;;;;;;4883670;29;19962;-79
2022/07/25 07:52:59;;;;;;;12.33;10.13;;;26.20;99.90;;;;;;4877645;29;20372;-74
2022/07/25 07:55:44;;;;;;;16.63;10.20;;;26.30;99.90;;;;;;4893014;29;20371;-74
2022/07/25 07:58:15;;;;;;;11.32;10.13;;;26.40;99.90;;;;;;4874945;29;20124;-75
2022/07/25 08:00:42;;;;;;;13.80;10.45;;;26.40;99.90;;;;;;4881901;29;20063;-76
2022/07/25 08:03:08;;;;;;;12.35;11.13;;;26.40;99.90;;;;;;4888629;29;20116;-75
2022/07/25 08:05:40;;;;;;;13.25;11.85;;;26.40;99.90;;;;;;4887627;29;20044;-75
2022/07/25 08:08:08;;;;;;;13.98;12.23;;;26.40;99.90;;;;;;4875808;29;20051;-75
2022/07/25 08:10:35;;;;;;;13.32;11.93;;;26.30;99.90;;;;;;4891770;29;20040;-75
2022/07/25 08:13:12;;;;;;;14.88;12.30;;;26.40;99.90;;;;;;4891063;29;20381;-75
2022/07/25 08:15:37;;;;;;;14.93;13.32;;;26.40;99.90;;;;;;4889674;29;20041;-75
2022/07/25 08:18:03;;;;;;;17.13;13.82;;;26.40;99.90;;;;;;4894152;29;20411;-75
2022/07/25 08:20:29;;;;;;;13.55;12.10;;;26.40;99.90;;;;;;4872857;29;20049;-75
2022/07/25 08:22:55;;;;;;;16.80;11.87;;;26.50;99.90;;;;;;4882483;29;20127;-74
2022/07/25 08:25:22;;;;;;;14.30;12.80;;;26.50;99.90;;;;;;4889456;29;20571;-74
2022/07/25 08:27:48;;;;;;;12.13;10.90;;;26.40;99.90;;;;;;4909419;29;20051;-75
2022/07/25 08:30:16;;;;;;;12.67;11.33;;;26.40;99.90;;;;;;4891391;29;20522;-74
2022/07/25 08:32:56;;;;;;;13.55;12.07;;;26.30;99.90;;;;;;4896698;29;20089;-75
2022/07/25 08:35:24;;;;;;;12.93;11.60;;;26.30;99.90;;;;;;4897054;29;20056;-72
2022/07/25 08:37:50;;;;;;;15.30;11.45;;;26.20;99.90;;;;;;4885511;29;20515;-74
2022/07/25 08:40:17;;;;;;;13.33;11.60;;;26.10;99.90;;;;;;4888178;29;20044;-74
2022/07/25 08:42:44;;;;;;;14.55;11.48;;;26.00;99.90;;;;;;4894920;29;20053;-76
2022/07/25 08:45:12;;;;;;;15.38;11.40;;;25.90;99.90;;;;;;4895147;29;20045;-76
2022/07/25 08:47:39;;;;;;;12.57;11.27;;;25.90;99.90;;;;;;4895821;29;20184;-74
2022/07/25 08:50:08;;;;;;;13.20;11.90;;;25.90;99.90;;;;;;4890011;29;20060;-77
2022/07/25 08:52:34;;;;;;;13.55;11.95;;;25.80;99.90;;;;;;4891997;29;20385;-75
2022/07/25 08:55:06;;;;;;;14.70;12.90;;;25.80;99.90;;;;;;4887991;29;20045;-75
2022/07/25 08:57:33;;;;;;;17.13;12.85;;;25.80;99.90;;;;;;4889603;29;20358;-74
2022/07/25 08:59:58;;;;;;;;;;;25.70;99.90;;;;;;4877220;29;20056;-75
2022/07/25 09:02:28;;;;;;;14.13;12.70;;;25.60;99.90;;;;;;4882969;29;19927;-75
2022/07/25 09:04:55;;;;;;;12.70;11.40;;;25.60;99.90;;;;;;4905288;29;20056;-74
2022/07/25 09:07:33;;;;;;;13.27;11.88;;;25.60;99.90;;;;;;4890013;29;20408;-75
2022/07/25 09:10:11;;;;;;;12.90;11.30;;;25.50;99.90;;;;;;4904064;29;20184;-75
2022/07/25 09:12:37;;;;;;;11.52;9.77;;;25.60;99.90;;;;;;4892785;29;20128;-75
2022/07/25 09:15:03;;;;;;;12.55;8.40;;;25.50;99.90;;;;;;4885489;29;20147;-74
2022/07/25 09:17:29;;;;;;;11.00;8.03;;;25.60;99.90;;;;;;4893626;29;20484;-75
2022/07/25 09:19:56;;;;;;;9.77;8.77;;;25.70;99.90;;;;;;4892277;29;20124;-74
2022/07/25 09:22:22;;;;;;;11.27;8.77;;;25.70;99.90;;;;;;4891020;29;20415;-74
2022/07/25 09:24:48;;;;;;;12.20;8.00;;;25.70;99.90;;;;;;4885077;29;20140;-74
2022/07/25 09:27:16;;;;;;;8.00;6.53;;;25.70;99.90;;;;;;4889030;29;20127;-72
2022/07/25 09:29:42;;;;;;;8.32;5.55;;;25.70;99.90;;;;;;4886087;29;20408;-74
2022/07/25 09:32:19;;;;;;;9.00;5.78;;;25.60;99.90;;;;;;4893663;29;20048;-74
2022/07/25 09:34:47;;;;;;;9.43;6.15;;;25.60;99.90;;;;;;4893465;29;20063;-74
2022/07/25 09:37:18;;;;;;;8.02;5.80;;;25.50;99.90;;;;;;4892781;29;20052;-75
2022/07/25 09:39:49;;;;;;;9.43;6.53;;;25.40;99.90;;;;;;4895073;29;20041;-72
2022/07/25 09:42:24;;;;;;;11.75;6.57;;;25.40;99.90;;;;;;4906784;29;20057;-73
2022/07/25 09:45:10;;;;;;;10.18;6.00;;;25.40;99.90;;;;;;4882190;29;20041;-73
2022/07/25 09:47:37;;;;;;;5.90;5.40;;;25.40;99.90;;;;;;4893405;29;20408;-74
2022/07/25 09:50:04;;;;;;;6.93;5.10;;;25.40;99.90;;;;;;4883464;29;20052;-74
2022/07/25 09:52:30;;;;;;;6.45;4.68;;;25.50;99.90;;;;;;4892773;29;20451;-73
2022/07/25 09:54:56;;;;;;;8.18;4.90;;;25.60;99.90;;;;;;4890649;29;20123;-74
2022/07/25 09:57:22;;;;;;;6.85;5.13;;;25.70;99.90;;;;;;4904591;29;20400;-74
2022/07/25 09:59:48;;;;;;;7.82;4.88;;;25.70;99.90;;;;;;4889374;29;20136;-74
2022/07/25 10:02:45;;;;;;;6.50;5.25;;;25.80;99.90;;;;;;4882211;29;20131;-74
2022/07/25 10:05:43;;;;;;;7.85;5.60;;;25.90;99.90;;;;;;4886229;29;20057;-74
2022/07/25 10:08:10;;;;;;;7.63;5.10;;;25.90;99.90;;;;;;4882148;29;20060;-74
2022/07/25 10:10:40;;;;;;;7.82;5.13;;;25.80;99.90;;;;;;4889243;29;20453;-75
2022/07/25 10:13:16;;;;;;;8.45;5.40;;;25.90;99.90;;;;;;4886420;29;20063;-75
2022/07/25 10:15:50;;;;;;;6.85;5.10;;;25.90;99.90;;;;;;4893058;29;20052;-75
2022/07/25 10:18:19;;;;;;;6.20;4.82;;;25.90;99.90;;;;;;4887194;29;20123;-73
2022/07/25 10:20:46;;;;;;;7.00;5.15;;;25.90;99.90;;;;;;4880029;29;20073;-77
2022/07/25 10:23:17;;;;;;;9.75;5.45;;;26.00;99.90;;;;;;4889951;29;20119;-76
2022/07/25 10:25:43;;;;;;;6.90;5.85;;;26.10;99.90;;;;;;4893148;29;20136;-73
2022/07/25 10:28:09;;;;;;;8.07;6.17;;;26.10;99.90;;;;;;4885827;29;20396;-73
2022/07/25 10:30:39;;;;;;;9.27;5.80;;;26.10;99.90;;;;;;4873978;29;20041;-74
2022/07/25 10:33:12;;;;;;;6.10;4.00;;;26.10;99.90;;;;;;4892182;29;20040;-73
2022/07/25 10:35:38;;;;;;;5.15;3.28;;;26.10;97.90;;;;;;4890275;29;20504;-74
2022/07/25 10:38:05;;;;;;;3.47;3.03;;;26.00;97.20;;;;;;4884117;29;20052;-73
2022/07/25 10:40:46;;;;;;;4.90;3.22;;;25.90;95.90;;;;;;4874576;29;20052;-74
2022/07/25 10:43:17;;;;;;;13.27;3.33;;;25.80;96.80;;;;;;4891775;29;20045;-75
2022/07/25 10:45:48;;;;;;;8.23;3.70;;;25.70;98.60;;;;;;4891019;29;20564;-72
2022/07/25 10:48:28;;;;;;;4.75;3.90;;;25.60;99.80;;;;;;4868842;29;20053;-74
2022/07/25 10:51:00;;;;;;;5.40;3.65;;;25.50;99.90;;;;;;4891436;29;20096;-77
2022/07/25 10:53:33;;;;;;;5.82;3.72;;;25.50;99.90;;;;;;4888746;29;20074;-76
2022/07/25 10:56:05;;;;;;;4.82;3.60;;;25.50;99.90;;;;;;4885520;29;20052;-77
2022/07/25 10:59:00;;;;;;;6.32;3.15;;;25.70;99.90;;;;;;4865199;29;20055;-74
2022/07/25 11:01:31;;;;;;;4.50;3.73;;;26.00;99.90;;;;;;4882010;29;20057;-75
2022/07/25 11:04:04;;;;;;;8.45;4.57;;;26.20;99.90;;;;;;4880313;29;20037;-76
2022/07/25 11:06:31;;;;;;;5.60;4.35;;;26.40;99.90;;;;;;4874533;29;20051;-75
2022/07/25 11:08:59;;;;;;;;;;;26.50;99.90;;;;;;4888614;29;20060;-74
2022/07/25 11:11:33;;;;;;;5.47;2.42;;;26.60;99.90;;;;;;4874655;29;19946;-75
2022/07/25 11:14:00;;;;;;;4.93;3.60;;;26.70;97.70;;;;;;4874162;29;20551;-80
2022/07/25 11:16:26;;;;;;;;;;;26.80;98.70;;;;;;4893203;29;20051;-75
2022/07/25 11:18:53;;;;;;;4.70;3.30;;;26.70;99.40;;;;;;4888746;29;19932;-74
2022/07/25 11:21:19;;;;;;;5.88;3.85;;;26.70;99.90;;;;;;4883474;29;20129;-74
2022/07/25 11:23:49;;;;;;;4.68;3.90;;;26.70;98.30;;;;;;4891594;29;20143;-75
2022/07/25 11:26:15;;;;;;;5.00;3.67;;;26.70;98.40;;;;;;4894754;29;20105;-74
2022/07/25 11:28:45;;;;;;;6.32;3.70;;;26.50;99.60;;;;;;4891508;29;20487;-74
2022/07/25 11:31:13;;;;;;;5.20;3.20;;;26.50;99.90;;;;;;4895793;29;20059;-74
2022/07/25 11:33:40;;;;;;;3.72;2.95;;;26.40;99.90;;;;;;4890563;29;20055;-74
2022/07/25 11:36:07;;;;;;;4.85;3.25;;;26.40;99.90;;;;;;4893989;29;20056;-76
2022/07/25 11:38:34;;;;;;;;;;;26.40;99.90;;;;;;4897421;29;20060;-75
2022/07/25 11:41:00;;;;;;;3.78;2.25;;;26.30;99.90;;;;;;4893013;29;19946;-75
2022/07/25 11:43:26;;;;;;;3.22;1.67;;;26.20;99.90;;;;;;4886428;29;20052;-76
2022/07/25 11:46:00;;;;;;;3.30;2.08;;;26.10;99.90;;;;;;4889519;29;20377;-77
2022/07/25 11:48:35;;;;;;;8.30;2.97;;;26.10;99.90;;;;;;4891839;29;20048;-77
2022/07/25 11:51:16;;;;;;;6.25;2.40;;;26.00;99.90;;;;;;4871733;29;20058;-76
2022/07/25 11:53:48;;;;;;;8.95;2.33;;;25.90;99.90;;;;;;4887694;29;20173;-76
2022/07/25 11:56:23;;;;;;;4.55;2.30;;;26.00;99.90;;;;;;4873637;29;20044;-76
2022/07/25 11:58:59;;;;;;;6.10;2.78;;;26.00;99.90;;;;;;4890134;29;20064;-77
2022/07/25 12:01:31;;;;;;;5.50;2.35;;;26.00;99.90;;;;;;4889257;29;20052;-75
2022/07/25 12:04:14;;;;;;;3.45;2.00;;;25.90;99.90;;;;;;4872776;29;20061;-77
2022/07/25 12:06:41;;;;;;;4.43;1.83;;;25.80;99.90;;;;;;4888867;29;20520;-77
2022/07/25 12:09:13;;;;;;;4.03;2.28;;;25.90;99.90;;;;;;4872438;29;20258;-78
2022/07/25 12:11:38;;;;;;;5.18;2.53;;;25.90;99.90;;;;;;4891913;29;20047;-77
2022/07/25 12:14:05;;;;;;;2.78;2.33;;;25.80;99.90;;;;;;4872604;29;20708;-77
2022/07/25 12:16:31;;;;;;;4.35;2.45;;;25.80;99.90;;;;;;4889763;29;20787;-78
2022/07/25 12:18:57;;;;;;;10.70;2.35;;;25.80;99.90;;;;;;4889502;29;20044;-78
2022/07/25 12:21:23;;;;;;;4.97;2.38;;;25.80;99.90;;;;;;4889742;29;20365;-78
2022/07/25 12:23:48;;;;;;;11.02;2.97;;;25.80;99.90;;;;;;4887446;29;20164;-78
2022/07/25 12:26:14;;;;;;;6.65;2.95;;;25.70;99.90;;;;;;4884830;29;20500;-77
2022/07/25 12:28:40;;;;;;;5.65;2.58;;;25.60;99.90;;;;;;4890134;29;20041;-76
2022/07/25 12:31:06;;;;;;;8.33;2.97;;;25.60;99.90;;;;;;4889726;29;20072;-78
2022/07/25 12:33:32;;;;;;;8.43;3.00;;;25.60;99.90;;;;;;4873965;29;20060;-77
2022/07/25 12:35:59;;;;;;;7.40;3.47;;;25.50;99.90;;;;;;4889805;29;20107;-82